首页
METAR-TAF:

METAR-TAF

机场 :

泰德·史蒂文斯安克雷奇國際機場

安克拉治, 阿拉斯加州, 美国

纬度: 61-10-28N, 经度: 149-59-46W, 海拔: 44米

当前天气观测

该预报发布于58分钟前的09:53 UTC
风速10节,风向
温度 1°C
湿度 80%
气压 986 hPa
能見度: 16.1公里
阴天层高于8000英尺

METAR: PANC 150953Z 36010KT 10SM OVC080 01/M02 A2912 RMK AO2 SLP862 T00111017 $

时间: 01:51 (10:51 UTC)

预报

该预报发布于5小时和12分钟前的05:39 UTC
预报有效从15日的 06点(UTC)到 16日的 12点(UTC)
风速6节,风向
能見度: 10公里
散云层高于2000英尺
阴天层高于6000英尺
从 15日的 1200点(UTC)
风速6节,风向
能見度: 10公里
多云层高于5000英尺
阴天层高于7000英尺
小阵雨, 雪
从 15日的 1500点(UTC)
风速5节,风向
能見度: 8.0公里
多云层高于4000英尺
阴天层高于6000英尺
(小) 冻, 雨, 雪
从 15日的 1900点(UTC)
风速7节,风向
能見度: 10公里
多云层高于5000英尺
小阵雨
从 16日的 0000点(UTC)
风速6节,风向
能見度: 10公里
多云层高于6000英尺
附近有阵雨

TAF: PANC 150539Z 1506/1612 35006KT P6SM SCT020 OVC060 FM151200 36006KT P6SM -SHRASN BKN050 OVC070 FM151500 01005KT 5SM -FZRASN BKN040 OVC060 FM151900 01007KT P6SM -SHRA BKN050 FM160000 01006KT P6SM VCSH BKN060

超过4000个机场的气象观测和天气预报(METAR&TAF报告)。

可查询的气象台以黄色和红色小点在地图上表示。

将鼠标移到小点上方,可查看气象台名称。

然后点击查看天气观测和预报。

如需切换地图:点击带黑十字的绿色按钮放大地图;点击带横线的绿色按钮缩小地图;或者点击绿色箭头查看邻近地区的地图。


METAR-TAF: